sensor_id;sensor_type;location;lat;lon;timestamp;temperature;humidity
14471;DHT22;7321;50.802;4.336;2023-05-07T00:00:16;19.00;99.90
14471;DHT22;7321;50.802;4.336;2023-05-07T00:02:47;19.10;99.90
14471;DHT22;7321;50.802;4.336;2023-05-07T00:05:16;19.10;99.90
14471;DHT22;7321;50.802;4.336;2023-05-07T00:07:43;19.10;99.90
14471;DHT22;7321;50.802;4.336;2023-05-07T00:10:10;19.10;99.90
14471;DHT22;7321;50.802;4.336;2023-05-07T00:12:38;19.20;99.90
14471;DHT22;7321;50.802;4.336;2023-05-07T00:15:05;19.10;99.90
14471;DHT22;7321;50.802;4.336;2023-05-07T00:17:33;19.10;99.90
14471;DHT22;7321;50.802;4.336;2023-05-07T00:19:59;19.00;99.90
14471;DHT22;7321;50.802;4.336;2023-05-07T00:22:25;19.10;99.90
14471;DHT22;7321;50.802;4.336;2023-05-07T00:24:54;19.00;99.90
14471;DHT22;7321;50.802;4.336;2023-05-07T00:27:20;19.00;99.90
14471;DHT22;7321;50.802;4.336;2023-05-07T00:29:47;19.00;99.90
14471;DHT22;7321;50.802;4.336;2023-05-07T00:32:16;18.90;99.90
14471;DHT22;7321;50.802;4.336;2023-05-07T00:34:44;19.00;99.90
14471;DHT22;7321;50.802;4.336;2023-05-07T00:37:10;19.10;99.90
14471;DHT22;7321;50.802;4.336;2023-05-07T00:39:40;19.20;99.90
14471;DHT22;7321;50.802;4.336;2023-05-07T00:42:07;19.10;99.90
14471;DHT22;7321;50.802;4.336;2023-05-07T00:44:35;19.10;99.90
14471;DHT22;7321;50.802;4.336;2023-05-07T00:47:04;19.00;99.90
14471;DHT22;7321;50.802;4.336;2023-05-07T00:49:39;19.00;99.90
14471;DHT22;7321;50.802;4.336;2023-05-07T00:52:11;19.00;99.90
14471;DHT22;7321;50.802;4.336;2023-05-07T00:54:41;18.90;99.90
14471;DHT22;7321;50.802;4.336;2023-05-07T00:57:10;19.00;99.90
14471;DHT22;7321;50.802;4.336;2023-05-07T00:59:41;18.90;99.90
14471;DHT22;7321;50.802;4.336;2023-05-07T01:02:17;18.90;99.90
14471;DHT22;7321;50.802;4.336;2023-05-07T01:04:43;18.90;99.90
14471;DHT22;7321;50.802;4.336;2023-05-07T01:07:12;19.00;99.90
14471;DHT22;7321;50.802;4.336;2023-05-07T01:09:38;18.90;99.90
14471;DHT22;7321;50.802;4.336;2023-05-07T01:12:06;18.80;99.90
14471;DHT22;7321;50.802;4.336;2023-05-07T01:14:34;18.80;99.90
14471;DHT22;7321;50.802;4.336;2023-05-07T01:17:01;18.80;99.90
14471;DHT22;7321;50.802;4.336;2023-05-07T01:19:29;18.80;99.90
14471;DHT22;7321;50.802;4.336;2023-05-07T01:22:04;18.60;99.90
14471;DHT22;7321;50.802;4.336;2023-05-07T01:24:36;18.60;99.90
14471;DHT22;7321;50.802;4.336;2023-05-07T01:27:04;18.60;99.90
14471;DHT22;7321;50.802;4.336;2023-05-07T01:29:30;18.60;99.90
14471;DHT22;7321;50.802;4.336;2023-05-07T01:31:59;18.60;99.90
14471;DHT22;7321;50.802;4.336;2023-05-07T01:34:31;18.60;99.90
14471;DHT22;7321;50.802;4.336;2023-05-07T01:36:59;18.60;99.90
14471;DHT22;7321;50.802;4.336;2023-05-07T01:39:28;18.60;99.90
14471;DHT22;7321;50.802;4.336;2023-05-07T01:41:56;18.60;99.90
14471;DHT22;7321;50.802;4.336;2023-05-07T01:44:24;18.50;99.90
14471;DHT22;7321;50.802;4.336;2023-05-07T01:46:53;18.50;99.90
14471;DHT22;7321;50.802;4.336;2023-05-07T01:49:20;18.50;99.90
14471;DHT22;7321;50.802;4.336;2023-05-07T01:51:48;18.40;99.90
14471;DHT22;7321;50.802;4.336;2023-05-07T01:54:16;18.40;99.90
14471;DHT22;7321;50.802;4.336;2023-05-07T01:56:44;18.40;99.90
14471;DHT22;7321;50.802;4.336;2023-05-07T01:59:10;18.40;99.90
14471;DHT22;7321;50.802;4.336;2023-05-07T02:01:37;18.40;99.90
14471;DHT22;7321;50.802;4.336;2023-05-07T02:04:04;18.50;99.90
14471;DHT22;7321;50.802;4.336;2023-05-07T02:06:33;18.30;99.90
14471;DHT22;7321;50.802;4.336;2023-05-07T02:09:00;18.30;99.90
14471;DHT22;7321;50.802;4.336;2023-05-07T02:11:27;18.20;99.90
14471;DHT22;7321;50.802;4.336;2023-05-07T02:13:54;18.20;99.90
14471;DHT22;7321;50.802;4.336;2023-05-07T02:16:22;18.30;99.90
14471;DHT22;7321;50.802;4.336;2023-05-07T02:18:49;18.30;99.90
14471;DHT22;7321;50.802;4.336;2023-05-07T02:21:15;18.30;99.90
14471;DHT22;7321;50.802;4.336;2023-05-07T02:23:43;18.20;99.90
14471;DHT22;7321;50.802;4.336;2023-05-07T02:26:10;18.10;99.90
14471;DHT22;7321;50.802;4.336;2023-05-07T02:28:41;18.10;99.90
14471;DHT22;7321;50.802;4.336;2023-05-07T02:31:07;18.20;99.90
14471;DHT22;7321;50.802;4.336;2023-05-07T02:33:35;18.10;99.90
14471;DHT22;7321;50.802;4.336;2023-05-07T02:36:11;18.00;99.90
14471;DHT22;7321;50.802;4.336;2023-05-07T02:38:38;18.10;99.90
14471;DHT22;7321;50.802;4.336;2023-05-07T02:41:06;18.20;99.90
14471;DHT22;7321;50.802;4.336;2023-05-07T02:43:34;18.10;99.90
14471;DHT22;7321;50.802;4.336;2023-05-07T02:46:08;17.90;99.90
14471;DHT22;7321;50.802;4.336;2023-05-07T02:48:36;17.80;99.90
14471;DHT22;7321;50.802;4.336;2023-05-07T02:51:03;17.60;99.90
14471;DHT22;7321;50.802;4.336;2023-05-07T02:53:31;17.60;99.90
14471;DHT22;7321;50.802;4.336;2023-05-07T02:55:59;17.60;99.90
14471;DHT22;7321;50.802;4.336;2023-05-07T02:58:27;17.60;99.90
14471;DHT22;7321;50.802;4.336;2023-05-07T03:00:55;17.60;99.90
14471;DHT22;7321;50.802;4.336;2023-05-07T03:03:24;17.70;99.90
14471;DHT22;7321;50.802;4.336;2023-05-07T03:05:53;17.70;99.90
14471;DHT22;7321;50.802;4.336;2023-05-07T03:08:21;17.60;99.90
14471;DHT22;7321;50.802;4.336;2023-05-07T03:10:47;17.60;99.90
14471;DHT22;7321;50.802;4.336;2023-05-07T03:13:14;17.60;99.90
14471;DHT22;7321;50.802;4.336;2023-05-07T03:15:40;17.60;99.90
14471;DHT22;7321;50.802;4.336;2023-05-07T03:18:08;17.70;99.90
14471;DHT22;7321;50.802;4.336;2023-05-07T03:20:38;17.80;99.90
14471;DHT22;7321;50.802;4.336;2023-05-07T03:23:04;17.80;99.90
14471;DHT22;7321;50.802;4.336;2023-05-07T03:25:33;17.80;99.90
14471;DHT22;7321;50.802;4.336;2023-05-07T03:28:02;17.80;99.90
14471;DHT22;7321;50.802;4.336;2023-05-07T03:30:28;17.80;99.90
14471;DHT22;7321;50.802;4.336;2023-05-07T03:32:54;17.90;99.90
14471;DHT22;7321;50.802;4.336;2023-05-07T03:35:21;17.90;99.90
14471;DHT22;7321;50.802;4.336;2023-05-07T03:37:47;17.80;99.90
14471;DHT22;7321;50.802;4.336;2023-05-07T03:40:16;17.90;99.90
14471;DHT22;7321;50.802;4.336;2023-05-07T03:42:42;17.90;99.90
14471;DHT22;7321;50.802;4.336;2023-05-07T03:45:10;18.00;99.90
14471;DHT22;7321;50.802;4.336;2023-05-07T03:47:37;18.10;99.90
14471;DHT22;7321;50.802;4.336;2023-05-07T03:50:06;18.00;99.90
14471;DHT22;7321;50.802;4.336;2023-05-07T03:52:34;18.00;99.90
14471;DHT22;7321;50.802;4.336;2023-05-07T03:55:01;18.10;99.90
14471;DHT22;7321;50.802;4.336;2023-05-07T03:57:27;18.10;99.90
14471;DHT22;7321;50.802;4.336;2023-05-07T03:59:55;18.10;99.90
14471;DHT22;7321;50.802;4.336;2023-05-07T04:02:24;18.00;99.90
14471;DHT22;7321;50.802;4.336;2023-05-07T04:04:50;18.00;99.90
14471;DHT22;7321;50.802;4.336;2023-05-07T04:07:16;18.00;99.90
14471;DHT22;7321;50.802;4.336;2023-05-07T04:09:43;18.10;99.90
14471;DHT22;7321;50.802;4.336;2023-05-07T04:12:11;17.90;99.90
14471;DHT22;7321;50.802;4.336;2023-05-07T04:14:38;18.10;99.90
14471;DHT22;7321;50.802;4.336;2023-05-07T04:17:05;18.10;99.90
14471;DHT22;7321;50.802;4.336;2023-05-07T04:19:33;18.20;99.90
14471;DHT22;7321;50.802;4.336;2023-05-07T04:22:01;18.20;99.90
14471;DHT22;7321;50.802;4.336;2023-05-07T04:24:32;18.20;99.90
14471;DHT22;7321;50.802;4.336;2023-05-07T04:26:59;18.10;99.90
14471;DHT22;7321;50.802;4.336;2023-05-07T04:29:26;18.10;99.90
14471;DHT22;7321;50.802;4.336;2023-05-07T04:31:54;18.10;99.90
14471;DHT22;7321;50.802;4.336;2023-05-07T04:34:23;18.20;99.90
14471;DHT22;7321;50.802;4.336;2023-05-07T04:36:49;18.20;99.90
14471;DHT22;7321;50.802;4.336;2023-05-07T04:39:17;18.30;99.90
14471;DHT22;7321;50.802;4.336;2023-05-07T04:41:46;18.30;99.90
14471;DHT22;7321;50.802;4.336;2023-05-07T04:44:14;18.30;99.90
14471;DHT22;7321;50.802;4.336;2023-05-07T04:46:40;18.30;99.90
14471;DHT22;7321;50.802;4.336;2023-05-07T04:49:08;18.40;99.90
14471;DHT22;7321;50.802;4.336;2023-05-07T04:51:36;18.40;99.90
14471;DHT22;7321;50.802;4.336;2023-05-07T04:54:05;18.40;99.90
14471;DHT22;7321;50.802;4.336;2023-05-07T04:56:36;18.40;99.90
14471;DHT22;7321;50.802;4.336;2023-05-07T04:59:02;18.40;99.90
14471;DHT22;7321;50.802;4.336;2023-05-07T05:01:29;18.50;99.90
14471;DHT22;7321;50.802;4.336;2023-05-07T05:03:56;18.50;99.90
14471;DHT22;7321;50.802;4.336;2023-05-07T05:06:24;18.60;99.90
14471;DHT22;7321;50.802;4.336;2023-05-07T05:08:52;18.70;99.90
14471;DHT22;7321;50.802;4.336;2023-05-07T05:11:21;18.70;99.90
14471;DHT22;7321;50.802;4.336;2023-05-07T05:13:47;18.70;99.90
14471;DHT22;7321;50.802;4.336;2023-05-07T05:16:16;18.70;99.90
14471;DHT22;7321;50.802;4.336;2023-05-07T05:18:46;18.70;99.90
14471;DHT22;7321;50.802;4.336;2023-05-07T05:21:14;18.80;99.90
14471;DHT22;7321;50.802;4.336;2023-05-07T05:23:45;18.80;99.90
14471;DHT22;7321;50.802;4.336;2023-05-07T05:26:11;18.90;99.90
14471;DHT22;7321;50.802;4.336;2023-05-07T05:28:38;18.90;99.90
14471;DHT22;7321;50.802;4.336;2023-05-07T05:31:07;18.80;99.90
14471;DHT22;7321;50.802;4.336;2023-05-07T05:33:33;18.90;99.90
14471;DHT22;7321;50.802;4.336;2023-05-07T05:36:00;18.80;99.90
14471;DHT22;7321;50.802;4.336;2023-05-07T05:38:26;18.80;99.90
14471;DHT22;7321;50.802;4.336;2023-05-07T05:40:52;18.80;99.90
14471;DHT22;7321;50.802;4.336;2023-05-07T05:43:18;19.00;99.90
14471;DHT22;7321;50.802;4.336;2023-05-07T05:45:45;19.00;99.90
14471;DHT22;7321;50.802;4.336;2023-05-07T05:48:13;19.00;99.90
14471;DHT22;7321;50.802;4.336;2023-05-07T05:50:42;19.10;99.90
14471;DHT22;7321;50.802;4.336;2023-05-07T05:53:09;19.10;99.90
14471;DHT22;7321;50.802;4.336;2023-05-07T05:55:37;19.10;99.90
14471;DHT22;7321;50.802;4.336;2023-05-07T05:58:06;18.80;99.90
14471;DHT22;7321;50.802;4.336;2023-05-07T06:00:33;18.80;99.90
14471;DHT22;7321;50.802;4.336;2023-05-07T06:03:03;18.70;99.90
14471;DHT22;7321;50.802;4.336;2023-05-07T06:05:29;18.70;99.90
14471;DHT22;7321;50.802;4.336;2023-05-07T06:07:55;18.70;99.90
14471;DHT22;7321;50.802;4.336;2023-05-07T06:10:24;18.70;99.90
14471;DHT22;7321;50.802;4.336;2023-05-07T06:12:52;18.70;99.90
14471;DHT22;7321;50.802;4.336;2023-05-07T06:15:18;18.70;99.90
14471;DHT22;7321;50.802;4.336;2023-05-07T06:17:45;18.60;99.90
14471;DHT22;7321;50.802;4.336;2023-05-07T06:20:11;18.60;99.90
14471;DHT22;7321;50.802;4.336;2023-05-07T06:22:38;18.70;99.90
14471;DHT22;7321;50.802;4.336;2023-05-07T06:25:06;18.60;99.90
14471;DHT22;7321;50.802;4.336;2023-05-07T06:27:34;18.50;99.90
14471;DHT22;7321;50.802;4.336;2023-05-07T06:30:01;18.50;99.90
14471;DHT22;7321;50.802;4.336;2023-05-07T06:32:30;18.50;99.90
14471;DHT22;7321;50.802;4.336;2023-05-07T06:34:56;18.50;99.90
14471;DHT22;7321;50.802;4.336;2023-05-07T06:37:25;18.60;99.90
14471;DHT22;7321;50.802;4.336;2023-05-07T06:39:51;18.50;99.90
14471;DHT22;7321;50.802;4.336;2023-05-07T06:42:19;18.50;99.90
14471;DHT22;7321;50.802;4.336;2023-05-07T06:44:46;18.50;99.90
14471;DHT22;7321;50.802;4.336;2023-05-07T06:47:13;18.50;99.90
14471;DHT22;7321;50.802;4.336;2023-05-07T06:49:40;18.50;99.90
14471;DHT22;7321;50.802;4.336;2023-05-07T06:52:08;18.50;99.90
14471;DHT22;7321;50.802;4.336;2023-05-07T06:54:34;18.60;99.90
14471;DHT22;7321;50.802;4.336;2023-05-07T06:57:04;18.60;99.90
14471;DHT22;7321;50.802;4.336;2023-05-07T06:59:32;18.30;99.90
14471;DHT22;7321;50.802;4.336;2023-05-07T07:01:58;18.30;99.90
14471;DHT22;7321;50.802;4.336;2023-05-07T07:04:26;18.40;99.90
14471;DHT22;7321;50.802;4.336;2023-05-07T07:06:56;18.40;99.90
14471;DHT22;7321;50.802;4.336;2023-05-07T07:09:25;18.40;99.90
14471;DHT22;7321;50.802;4.336;2023-05-07T07:11:55;18.40;99.90
14471;DHT22;7321;50.802;4.336;2023-05-07T07:14:22;18.30;99.90
14471;DHT22;7321;50.802;4.336;2023-05-07T07:16:49;18.30;99.90
14471;DHT22;7321;50.802;4.336;2023-05-07T07:19:17;18.40;99.90
14471;DHT22;7321;50.802;4.336;2023-05-07T07:21:45;18.40;99.90
14471;DHT22;7321;50.802;4.336;2023-05-07T07:24:15;18.40;99.90
14471;DHT22;7321;50.802;4.336;2023-05-07T07:26:46;18.50;99.90
14471;DHT22;7321;50.802;4.336;2023-05-07T07:29:13;18.60;99.90
14471;DHT22;7321;50.802;4.336;2023-05-07T07:31:40;18.50;99.90
14471;DHT22;7321;50.802;4.336;2023-05-07T07:34:08;18.40;99.90
14471;DHT22;7321;50.802;4.336;2023-05-07T07:36:35;18.50;99.90
14471;DHT22;7321;50.802;4.336;2023-05-07T07:39:02;18.50;99.90
14471;DHT22;7321;50.802;4.336;2023-05-07T07:41:28;18.60;99.90
14471;DHT22;7321;50.802;4.336;2023-05-07T07:43:55;18.80;99.90
14471;DHT22;7321;50.802;4.336;2023-05-07T07:46:22;18.80;99.90
14471;DHT22;7321;50.802;4.336;2023-05-07T07:48:51;18.80;99.90
14471;DHT22;7321;50.802;4.336;2023-05-07T07:51:19;18.80;99.90
14471;DHT22;7321;50.802;4.336;2023-05-07T07:53:45;18.70;99.90
14471;DHT22;7321;50.802;4.336;2023-05-07T07:56:12;18.90;99.90
14471;DHT22;7321;50.802;4.336;2023-05-07T07:58:40;18.80;99.90
14471;DHT22;7321;50.802;4.336;2023-05-07T08:01:06;18.80;99.90
14471;DHT22;7321;50.802;4.336;2023-05-07T08:03:33;18.80;99.90
14471;DHT22;7321;50.802;4.336;2023-05-07T08:05:59;18.80;99.90
14471;DHT22;7321;50.802;4.336;2023-05-07T08:08:26;19.00;99.90
14471;DHT22;7321;50.802;4.336;2023-05-07T08:10:53;18.90;99.90
14471;DHT22;7321;50.802;4.336;2023-05-07T08:13:21;18.90;99.90
14471;DHT22;7321;50.802;4.336;2023-05-07T08:15:50;18.80;99.90
14471;DHT22;7321;50.802;4.336;2023-05-07T08:18:18;18.80;99.90
14471;DHT22;7321;50.802;4.336;2023-05-07T08:20:48;18.90;99.90
14471;DHT22;7321;50.802;4.336;2023-05-07T08:23:16;18.90;99.90
14471;DHT22;7321;50.802;4.336;2023-05-07T08:25:46;19.10;99.90
14471;DHT22;7321;50.802;4.336;2023-05-07T08:28:13;19.00;99.90
14471;DHT22;7321;50.802;4.336;2023-05-07T08:30:40;18.90;99.90
14471;DHT22;7321;50.802;4.336;2023-05-07T08:33:09;18.90;99.90
14471;DHT22;7321;50.802;4.336;2023-05-07T08:35:36;18.90;99.90
14471;DHT22;7321;50.802;4.336;2023-05-07T08:38:02;18.90;99.90
14471;DHT22;7321;50.802;4.336;2023-05-07T08:40:29;18.90;99.90
14471;DHT22;7321;50.802;4.336;2023-05-07T08:42:59;18.90;99.90
14471;DHT22;7321;50.802;4.336;2023-05-07T08:45:28;18.80;99.90
14471;DHT22;7321;50.802;4.336;2023-05-07T08:47:58;18.70;99.90
14471;DHT22;7321;50.802;4.336;2023-05-07T08:50:27;18.80;99.90
14471;DHT22;7321;50.802;4.336;2023-05-07T08:52:56;18.80;99.90
14471;DHT22;7321;50.802;4.336;2023-05-07T08:55:24;18.80;99.90
14471;DHT22;7321;50.802;4.336;2023-05-07T08:57:50;18.90;99.90
14471;DHT22;7321;50.802;4.336;2023-05-07T09:00:19;18.80;99.90
14471;DHT22;7321;50.802;4.336;2023-05-07T09:02:46;19.00;99.90
14471;DHT22;7321;50.802;4.336;2023-05-07T09:05:13;19.10;99.90
14471;DHT22;7321;50.802;4.336;2023-05-07T09:07:41;19.20;99.90
14471;DHT22;7321;50.802;4.336;2023-05-07T09:10:08;19.30;99.90
14471;DHT22;7321;50.802;4.336;2023-05-07T09:12:35;19.50;99.90
14471;DHT22;7321;50.802;4.336;2023-05-07T09:15:04;19.50;99.90
14471;DHT22;7321;50.802;4.336;2023-05-07T09:17:32;19.60;99.90
14471;DHT22;7321;50.802;4.336;2023-05-07T09:20:05;19.70;99.90
14471;DHT22;7321;50.802;4.336;2023-05-07T09:22:32;19.60;99.90
14471;DHT22;7321;50.802;4.336;2023-05-07T09:24:59;19.80;99.90
14471;DHT22;7321;50.802;4.336;2023-05-07T09:27:26;19.80;99.90
14471;DHT22;7321;50.802;4.336;2023-05-07T09:29:55;19.80;99.90
14471;DHT22;7321;50.802;4.336;2023-05-07T09:32:21;20.00;99.90
14471;DHT22;7321;50.802;4.336;2023-05-07T09:34:50;20.10;99.90
14471;DHT22;7321;50.802;4.336;2023-05-07T09:37:17;20.30;99.90
14471;DHT22;7321;50.802;4.336;2023-05-07T09:39:49;20.40;99.90
14471;DHT22;7321;50.802;4.336;2023-05-07T09:42:24;20.30;99.90
14471;DHT22;7321;50.802;4.336;2023-05-07T09:44:51;20.40;99.90
14471;DHT22;7321;50.802;4.336;2023-05-07T09:47:19;20.50;99.90
14471;DHT22;7321;50.802;4.336;2023-05-07T09:49:50;20.60;99.90
14471;DHT22;7321;50.802;4.336;2023-05-07T09:52:19;20.60;99.90
14471;DHT22;7321;50.802;4.336;2023-05-07T09:54:47;20.70;99.90
14471;DHT22;7321;50.802;4.336;2023-05-07T09:57:17;20.70;99.90
14471;DHT22;7321;50.802;4.336;2023-05-07T09:59:48;20.60;99.90
14471;DHT22;7321;50.802;4.336;2023-05-07T10:02:16;20.60;99.90
14471;DHT22;7321;50.802;4.336;2023-05-07T10:04:44;20.50;99.90
14471;DHT22;7321;50.802;4.336;2023-05-07T10:07:16;20.30;99.90
14471;DHT22;7321;50.802;4.336;2023-05-07T10:09:46;20.30;99.90
14471;DHT22;7321;50.802;4.336;2023-05-07T10:12:13;20.20;99.90
14471;DHT22;7321;50.802;4.336;2023-05-07T10:14:39;20.20;99.90
14471;DHT22;7321;50.802;4.336;2023-05-07T10:17:07;20.10;99.90
14471;DHT22;7321;50.802;4.336;2023-05-07T10:19:34;20.10;99.90
14471;DHT22;7321;50.802;4.336;2023-05-07T10:22:06;19.90;99.90
14471;DHT22;7321;50.802;4.336;2023-05-07T10:24:33;19.70;99.90
14471;DHT22;7321;50.802;4.336;2023-05-07T10:27:06;19.70;99.90
14471;DHT22;7321;50.802;4.336;2023-05-07T10:34:50;19.90;99.90
14471;DHT22;7321;50.802;4.336;2023-05-07T10:37:18;19.90;99.90
14471;DHT22;7321;50.802;4.336;2023-05-07T10:39:48;19.90;99.90
14471;DHT22;7321;50.802;4.336;2023-05-07T10:42:15;20.10;99.90
14471;DHT22;7321;50.802;4.336;2023-05-07T10:44:43;20.30;99.90
14471;DHT22;7321;50.802;4.336;2023-05-07T10:47:14;20.50;99.90
14471;DHT22;7321;50.802;4.336;2023-05-07T10:52:21;20.60;99.90
14471;DHT22;7321;50.802;4.336;2023-05-07T10:57:40;21.10;99.90
14471;DHT22;7321;50.802;4.336;2023-05-07T11:05:30;21.20;99.90
14471;DHT22;7321;50.802;4.336;2023-05-07T11:07:59;21.20;99.90
14471;DHT22;7321;50.802;4.336;2023-05-07T11:10:48;21.10;99.90
14471;DHT22;7321;50.802;4.336;2023-05-07T11:13:15;21.20;99.90
14471;DHT22;7321;50.802;4.336;2023-05-07T11:15:46;21.40;99.90
14471;DHT22;7321;50.802;4.336;2023-05-07T11:18:16;21.30;99.90
14471;DHT22;7321;50.802;4.336;2023-05-07T11:20:46;21.50;99.90
14471;DHT22;7321;50.802;4.336;2023-05-07T11:26:24;21.50;99.90
14471;DHT22;7321;50.802;4.336;2023-05-07T11:28:51;21.20;99.90
14471;DHT22;7321;50.802;4.336;2023-05-07T11:31:27;21.10;99.90
14471;DHT22;7321;50.802;4.336;2023-05-07T11:33:54;21.10;99.90
14471;DHT22;7321;50.802;4.336;2023-05-07T11:36:22;21.20;99.90
14471;DHT22;7321;50.802;4.336;2023-05-07T11:38:48;21.30;99.90
14471;DHT22;7321;50.802;4.336;2023-05-07T11:41:16;21.40;99.90
14471;DHT22;7321;50.802;4.336;2023-05-07T11:43:56;21.50;99.90
14471;DHT22;7321;50.802;4.336;2023-05-07T11:46:22;21.60;99.90
14471;DHT22;7321;50.802;4.336;2023-05-07T11:48:48;21.60;99.90
14471;DHT22;7321;50.802;4.336;2023-05-07T11:51:20;21.80;99.90
14471;DHT22;7321;50.802;4.336;2023-05-07T11:53:49;21.90;99.90
14471;DHT22;7321;50.802;4.336;2023-05-07T11:56:17;22.00;99.90
14471;DHT22;7321;50.802;4.336;2023-05-07T11:58:45;22.00;99.90
14471;DHT22;7321;50.802;4.336;2023-05-07T12:01:15;22.10;99.90
14471;DHT22;7321;50.802;4.336;2023-05-07T12:03:43;22.10;99.90
14471;DHT22;7321;50.802;4.336;2023-05-07T12:06:12;22.20;99.90
14471;DHT22;7321;50.802;4.336;2023-05-07T12:08:39;22.30;99.90
14471;DHT22;7321;50.802;4.336;2023-05-07T12:11:12;22.30;99.90
14471;DHT22;7321;50.802;4.336;2023-05-07T12:13:39;22.40;99.90
14471;DHT22;7321;50.802;4.336;2023-05-07T12:16:06;22.50;99.90
14471;DHT22;7321;50.802;4.336;2023-05-07T12:18:34;22.50;99.90
14471;DHT22;7321;50.802;4.336;2023-05-07T12:21:00;22.60;99.90
14471;DHT22;7321;50.802;4.336;2023-05-07T12:23:27;22.70;99.90
14471;DHT22;7321;50.802;4.336;2023-05-07T12:25:53;22.70;99.90
14471;DHT22;7321;50.802;4.336;2023-05-07T12:28:19;22.80;99.90
14471;DHT22;7321;50.802;4.336;2023-05-07T12:30:47;22.90;99.90
14471;DHT22;7321;50.802;4.336;2023-05-07T12:33:17;22.80;99.90
14471;DHT22;7321;50.802;4.336;2023-05-07T12:35:44;22.80;99.90
14471;DHT22;7321;50.802;4.336;2023-05-07T12:38:15;22.70;99.90
14471;DHT22;7321;50.802;4.336;2023-05-07T12:40:49;22.70;99.90
14471;DHT22;7321;50.802;4.336;2023-05-07T12:43:28;22.70;99.90
14471;DHT22;7321;50.802;4.336;2023-05-07T12:45:56;22.80;99.90
14471;DHT22;7321;50.802;4.336;2023-05-07T12:48:23;22.80;99.90
14471;DHT22;7321;50.802;4.336;2023-05-07T12:50:56;22.80;99.90
14471;DHT22;7321;50.802;4.336;2023-05-07T12:53:24;22.70;99.90
14471;DHT22;7321;50.802;4.336;2023-05-07T12:55:56;22.70;99.90
14471;DHT22;7321;50.802;4.336;2023-05-07T12:58:29;22.80;99.90
14471;DHT22;7321;50.802;4.336;2023-05-07T13:00:57;22.70;99.90
14471;DHT22;7321;50.802;4.336;2023-05-07T13:03:31;22.60;99.90
14471;DHT22;7321;50.802;4.336;2023-05-07T13:06:02;22.50;99.90
14471;DHT22;7321;50.802;4.336;2023-05-07T13:10:54;22.30;99.90
14471;DHT22;7321;50.802;4.336;2023-05-07T13:13:21;22.20;99.90
14471;DHT22;7321;50.802;4.336;2023-05-07T13:15:47;22.00;99.90
14471;DHT22;7321;50.802;4.336;2023-05-07T13:18:14;22.10;99.90
14471;DHT22;7321;50.802;4.336;2023-05-07T13:20:40;22.00;99.90
14471;DHT22;7321;50.802;4.336;2023-05-07T13:23:06;22.00;99.90
14471;DHT22;7321;50.802;4.336;2023-05-07T13:25:32;22.10;99.90
14471;DHT22;7321;50.802;4.336;2023-05-07T13:27:58;22.00;99.90
14471;DHT22;7321;50.802;4.336;2023-05-07T13:30:24;22.00;99.90
14471;DHT22;7321;50.802;4.336;2023-05-07T13:32:50;22.10;99.90
14471;DHT22;7321;50.802;4.336;2023-05-07T13:35:18;22.00;99.90
14471;DHT22;7321;50.802;4.336;2023-05-07T13:37:44;21.80;99.90
14471;DHT22;7321;50.802;4.336;2023-05-07T13:40:10;21.70;99.90
14471;DHT22;7321;50.802;4.336;2023-05-07T13:42:36;21.60;99.90
14471;DHT22;7321;50.802;4.336;2023-05-07T13:45:02;21.80;99.90
14471;DHT22;7321;50.802;4.336;2023-05-07T13:47:30;21.70;99.90
14471;DHT22;7321;50.802;4.336;2023-05-07T13:49:56;21.80;99.90
14471;DHT22;7321;50.802;4.336;2023-05-07T13:52:22;22.00;99.90
14471;DHT22;7321;50.802;4.336;2023-05-07T13:54:48;22.10;99.90
14471;DHT22;7321;50.802;4.336;2023-05-07T13:57:17;22.20;99.90
14471;DHT22;7321;50.802;4.336;2023-05-07T13:59:43;21.90;99.90
14471;DHT22;7321;50.802;4.336;2023-05-07T14:02:09;22.00;99.90
14471;DHT22;7321;50.802;4.336;2023-05-07T14:04:35;21.90;99.90
14471;DHT22;7321;50.802;4.336;2023-05-07T14:07:01;22.00;99.90
14471;DHT22;7321;50.802;4.336;2023-05-07T14:09:27;21.90;99.90
14471;DHT22;7321;50.802;4.336;2023-05-07T14:11:53;22.00;99.90
14471;DHT22;7321;50.802;4.336;2023-05-07T14:14:19;22.00;99.90
14471;DHT22;7321;50.802;4.336;2023-05-07T14:16:45;22.00;99.90
14471;DHT22;7321;50.802;4.336;2023-05-07T14:19:12;22.10;99.90
14471;DHT22;7321;50.802;4.336;2023-05-07T14:21:38;22.10;99.90
14471;DHT22;7321;50.802;4.336;2023-05-07T14:24:07;22.10;99.90
14471;DHT22;7321;50.802;4.336;2023-05-07T14:26:36;22.00;99.90
14471;DHT22;7321;50.802;4.336;2023-05-07T14:29:02;22.00;99.90
14471;DHT22;7321;50.802;4.336;2023-05-07T14:31:29;22.00;99.90
14471;DHT22;7321;50.802;4.336;2023-05-07T14:33:56;22.00;99.90
14471;DHT22;7321;50.802;4.336;2023-05-07T14:36:23;22.10;99.90
14471;DHT22;7321;50.802;4.336;2023-05-07T14:38:52;22.20;99.90
14471;DHT22;7321;50.802;4.336;2023-05-07T14:41:20;22.20;99.90
14471;DHT22;7321;50.802;4.336;2023-05-07T14:43:47;22.20;99.90
14471;DHT22;7321;50.802;4.336;2023-05-07T14:46:18;21.80;99.90
14471;DHT22;7321;50.802;4.336;2023-05-07T14:48:45;21.70;99.90
14471;DHT22;7321;50.802;4.336;2023-05-07T14:51:12;21.60;99.90
14471;DHT22;7321;50.802;4.336;2023-05-07T14:53:40;21.70;99.90
14471;DHT22;7321;50.802;4.336;2023-05-07T14:56:06;21.70;99.90
14471;DHT22;7321;50.802;4.336;2023-05-07T14:58:33;21.80;99.90
14471;DHT22;7321;50.802;4.336;2023-05-07T15:00:59;21.90;99.90
14471;DHT22;7321;50.802;4.336;2023-05-07T15:03:26;21.60;99.90
14471;DHT22;7321;50.802;4.336;2023-05-07T15:05:52;21.60;99.90
14471;DHT22;7321;50.802;4.336;2023-05-07T15:08:18;21.60;99.90
14471;DHT22;7321;50.802;4.336;2023-05-07T15:10:44;21.60;99.90
14471;DHT22;7321;50.802;4.336;2023-05-07T15:13:11;21.60;99.90
14471;DHT22;7321;50.802;4.336;2023-05-07T15:15:38;21.50;99.90
14471;DHT22;7321;50.802;4.336;2023-05-07T15:18:04;21.50;99.90
14471;DHT22;7321;50.802;4.336;2023-05-07T15:20:31;21.60;99.90
14471;DHT22;7321;50.802;4.336;2023-05-07T15:22:57;21.60;99.90
14471;DHT22;7321;50.802;4.336;2023-05-07T15:25:24;21.30;99.90
14471;DHT22;7321;50.802;4.336;2023-05-07T15:27:50;21.10;99.90
14471;DHT22;7321;50.802;4.336;2023-05-07T15:30:15;21.20;99.90
14471;DHT22;7321;50.802;4.336;2023-05-07T15:32:42;21.20;99.90
14471;DHT22;7321;50.802;4.336;2023-05-07T15:35:09;21.00;99.90
14471;DHT22;7321;50.802;4.336;2023-05-07T15:37:35;21.10;99.90
14471;DHT22;7321;50.802;4.336;2023-05-07T15:40:01;21.20;99.90
14471;DHT22;7321;50.802;4.336;2023-05-07T15:42:33;21.10;99.90
14471;DHT22;7321;50.802;4.336;2023-05-07T15:44:59;21.10;99.90
14471;DHT22;7321;50.802;4.336;2023-05-07T15:47:27;21.20;99.90
14471;DHT22;7321;50.802;4.336;2023-05-07T15:49:53;21.20;99.90
14471;DHT22;7321;50.802;4.336;2023-05-07T15:52:19;21.30;99.90
14471;DHT22;7321;50.802;4.336;2023-05-07T15:54:46;21.00;99.90
14471;DHT22;7321;50.802;4.336;2023-05-07T15:57:13;21.00;99.90
14471;DHT22;7321;50.802;4.336;2023-05-07T15:59:39;20.90;99.90
14471;DHT22;7321;50.802;4.336;2023-05-07T16:02:05;20.80;99.90
14471;DHT22;7321;50.802;4.336;2023-05-07T16:04:32;20.90;99.90
14471;DHT22;7321;50.802;4.336;2023-05-07T16:06:58;20.80;99.90
14471;DHT22;7321;50.802;4.336;2023-05-07T16:09:24;20.80;99.90